sensor_id;sensor_type;location;lat;lon;timestamp;P1;durP1;ratioP1;P2;durP2;ratioP2
30378;SDS011;17168;49.164;9.060;2023-07-02T00:01:36;2.70;;;1.67;;
30378;SDS011;17168;49.164;9.060;2023-07-02T00:04:08;3.03;;;1.40;;
30378;SDS011;17168;49.164;9.060;2023-07-02T00:06:42;3.83;;;1.95;;
30378;SDS011;17168;49.164;9.060;2023-07-02T00:09:18;3.33;;;1.88;;
30378;SDS011;17168;49.164;9.060;2023-07-02T00:11:50;2.53;;;1.30;;
30378;SDS011;17168;49.164;9.060;2023-07-02T00:14:23;2.50;;;1.55;;
30378;SDS011;17168;49.164;9.060;2023-07-02T00:16:55;3.58;;;1.98;;
30378;SDS011;17168;49.164;9.060;2023-07-02T00:19:28;2.60;;;1.55;;
30378;SDS011;17168;49.164;9.060;2023-07-02T00:22:00;2.90;;;1.90;;
30378;SDS011;17168;49.164;9.060;2023-07-02T00:24:36;4.18;;;1.90;;
30378;SDS011;17168;49.164;9.060;2023-07-02T00:27:09;2.67;;;1.90;;
30378;SDS011;17168;49.164;9.060;2023-07-02T00:29:41;3.30;;;2.15;;
30378;SDS011;17168;49.164;9.060;2023-07-02T00:32:13;5.03;;;2.13;;
30378;SDS011;17168;49.164;9.060;2023-07-02T00:34:46;5.00;;;1.73;;
30378;SDS011;17168;49.164;9.060;2023-07-02T00:37:18;2.95;;;1.95;;
30378;SDS011;17168;49.164;9.060;2023-07-02T00:39:53;2.50;;;1.23;;
30378;SDS011;17168;49.164;9.060;2023-07-02T00:42:25;6.35;;;1.90;;
30378;SDS011;17168;49.164;9.060;2023-07-02T00:45:01;2.38;;;1.20;;
30378;SDS011;17168;49.164;9.060;2023-07-02T00:47:36;4.53;;;2.28;;
30378;SDS011;17168;49.164;9.060;2023-07-02T00:50:09;3.65;;;2.20;;
30378;SDS011;17168;49.164;9.060;2023-07-02T00:52:43;3.70;;;2.00;;
30378;SDS011;17168;49.164;9.060;2023-07-02T00:55:18;2.55;;;1.75;;
30378;SDS011;17168;49.164;9.060;2023-07-02T00:57:50;2.38;;;1.50;;
30378;SDS011;17168;49.164;9.060;2023-07-02T01:00:22;4.20;;;2.10;;
30378;SDS011;17168;49.164;9.060;2023-07-02T01:02:55;2.90;;;1.90;;
30378;SDS011;17168;49.164;9.060;2023-07-02T01:05:31;2.95;;;1.58;;
30378;SDS011;17168;49.164;9.060;2023-07-02T01:08:07;2.85;;;1.33;;
30378;SDS011;17168;49.164;9.060;2023-07-02T01:10:42;3.33;;;1.70;;
30378;SDS011;17168;49.164;9.060;2023-07-02T01:13:16;4.25;;;2.38;;
30378;SDS011;17168;49.164;9.060;2023-07-02T01:15:52;3.75;;;1.42;;
30378;SDS011;17168;49.164;9.060;2023-07-02T01:18:25;3.40;;;1.98;;
30378;SDS011;17168;49.164;9.060;2023-07-02T01:21:00;4.22;;;1.73;;
30378;SDS011;17168;49.164;9.060;2023-07-02T01:23:33;2.85;;;1.55;;
30378;SDS011;17168;49.164;9.060;2023-07-02T01:26:06;2.67;;;1.80;;
30378;SDS011;17168;49.164;9.060;2023-07-02T01:28:38;4.95;;;1.83;;
30378;SDS011;17168;49.164;9.060;2023-07-02T01:31:10;5.57;;;2.95;;
30378;SDS011;17168;49.164;9.060;2023-07-02T01:33:43;3.10;;;1.98;;
30378;SDS011;17168;49.164;9.060;2023-07-02T01:36:18;3.13;;;1.92;;
30378;SDS011;17168;49.164;9.060;2023-07-02T01:38:50;3.20;;;1.95;;
30378;SDS011;17168;49.164;9.060;2023-07-02T01:41:22;5.03;;;2.58;;
30378;SDS011;17168;49.164;9.060;2023-07-02T01:43:55;3.50;;;1.50;;
30378;SDS011;17168;49.164;9.060;2023-07-02T01:46:27;3.97;;;1.80;;
30378;SDS011;17168;49.164;9.060;2023-07-02T01:49:00;2.83;;;1.70;;
30378;SDS011;17168;49.164;9.060;2023-07-02T01:51:35;2.85;;;2.47;;
30378;SDS011;17168;49.164;9.060;2023-07-02T01:54:07;3.85;;;1.98;;
30378;SDS011;17168;49.164;9.060;2023-07-02T01:56:39;2.97;;;1.70;;
30378;SDS011;17168;49.164;9.060;2023-07-02T01:59:12;4.57;;;1.80;;
30378;SDS011;17168;49.164;9.060;2023-07-02T02:01:44;3.65;;;1.92;;
30378;SDS011;17168;49.164;9.060;2023-07-02T02:04:17;4.72;;;1.90;;
30378;SDS011;17168;49.164;9.060;2023-07-02T02:06:52;3.88;;;2.30;;
30378;SDS011;17168;49.164;9.060;2023-07-02T02:09:25;3.75;;;2.20;;
30378;SDS011;17168;49.164;9.060;2023-07-02T02:11:59;2.53;;;1.42;;
30378;SDS011;17168;49.164;9.060;2023-07-02T02:14:32;3.10;;;2.03;;
30378;SDS011;17168;49.164;9.060;2023-07-02T02:17:04;3.40;;;1.35;;
30378;SDS011;17168;49.164;9.060;2023-07-02T02:19:37;4.10;;;1.88;;
30378;SDS011;17168;49.164;9.060;2023-07-02T02:22:12;5.75;;;1.80;;
30378;SDS011;17168;49.164;9.060;2023-07-02T02:24:44;2.72;;;1.90;;
30378;SDS011;17168;49.164;9.060;2023-07-02T02:27:16;2.25;;;1.50;;
30378;SDS011;17168;49.164;9.060;2023-07-02T02:29:49;2.97;;;1.85;;
30378;SDS011;17168;49.164;9.060;2023-07-02T02:32:21;3.67;;;1.83;;
30378;SDS011;17168;49.164;9.060;2023-07-02T02:34:54;4.57;;;1.88;;
30378;SDS011;17168;49.164;9.060;2023-07-02T02:37:29;3.60;;;1.75;;
30378;SDS011;17168;49.164;9.060;2023-07-02T02:40:01;4.15;;;2.13;;
30378;SDS011;17168;49.164;9.060;2023-07-02T02:42:34;5.07;;;2.30;;
30378;SDS011;17168;49.164;9.060;2023-07-02T02:45:07;4.60;;;2.20;;
30378;SDS011;17168;49.164;9.060;2023-07-02T02:47:40;5.35;;;2.30;;
30378;SDS011;17168;49.164;9.060;2023-07-02T02:50:12;4.93;;;2.47;;
30378;SDS011;17168;49.164;9.060;2023-07-02T02:52:47;5.90;;;2.90;;
30378;SDS011;17168;49.164;9.060;2023-07-02T02:55:19;6.57;;;3.50;;
30378;SDS011;17168;49.164;9.060;2023-07-02T02:57:52;3.33;;;1.88;;
30378;SDS011;17168;49.164;9.060;2023-07-02T03:00:24;5.60;;;3.38;;
30378;SDS011;17168;49.164;9.060;2023-07-02T03:02:57;5.25;;;2.33;;
30378;SDS011;17168;49.164;9.060;2023-07-02T03:05:30;4.45;;;2.03;;
30378;SDS011;17168;49.164;9.060;2023-07-02T03:08:05;6.20;;;1.95;;
30378;SDS011;17168;49.164;9.060;2023-07-02T03:10:38;5.40;;;2.90;;
30378;SDS011;17168;49.164;9.060;2023-07-02T03:13:10;5.45;;;1.95;;
30378;SDS011;17168;49.164;9.060;2023-07-02T03:15:42;3.83;;;1.70;;
30378;SDS011;17168;49.164;9.060;2023-07-02T03:18:15;6.25;;;1.98;;
30378;SDS011;17168;49.164;9.060;2023-07-02T03:20:47;4.45;;;2.03;;
30378;SDS011;17168;49.164;9.060;2023-07-02T03:23:22;4.85;;;1.92;;
30378;SDS011;17168;49.164;9.060;2023-07-02T03:25:55;5.07;;;2.63;;
30378;SDS011;17168;49.164;9.060;2023-07-02T03:28:27;5.47;;;2.25;;
30378;SDS011;17168;49.164;9.060;2023-07-02T03:31:00;4.90;;;2.20;;
30378;SDS011;17168;49.164;9.060;2023-07-02T03:33:32;5.82;;;2.20;;
30378;SDS011;17168;49.164;9.060;2023-07-02T03:36:05;6.85;;;2.00;;
30378;SDS011;17168;49.164;9.060;2023-07-02T03:38:41;4.55;;;1.77;;
30378;SDS011;17168;49.164;9.060;2023-07-02T03:41:13;4.68;;;2.30;;
30378;SDS011;17168;49.164;9.060;2023-07-02T03:43:45;5.28;;;2.35;;
30378;SDS011;17168;49.164;9.060;2023-07-02T03:46:19;7.22;;;2.30;;
30378;SDS011;17168;49.164;9.060;2023-07-02T03:48:52;3.95;;;2.08;;
30378;SDS011;17168;49.164;9.060;2023-07-02T03:51:24;7.00;;;2.53;;
30378;SDS011;17168;49.164;9.060;2023-07-02T03:53:59;7.82;;;2.28;;
30378;SDS011;17168;49.164;9.060;2023-07-02T03:56:32;7.15;;;2.60;;
30378;SDS011;17168;49.164;9.060;2023-07-02T03:59:05;9.23;;;2.72;;
30378;SDS011;17168;49.164;9.060;2023-07-02T04:01:37;5.47;;;2.42;;
30378;SDS011;17168;49.164;9.060;2023-07-02T04:04:10;6.13;;;2.67;;
30378;SDS011;17168;49.164;9.060;2023-07-02T04:06:44;9.38;;;2.60;;
30378;SDS011;17168;49.164;9.060;2023-07-02T04:09:20;6.85;;;3.15;;
30378;SDS011;17168;49.164;9.060;2023-07-02T04:11:52;6.18;;;3.00;;
30378;SDS011;17168;49.164;9.060;2023-07-02T04:14:24;4.88;;;2.45;;
30378;SDS011;17168;49.164;9.060;2023-07-02T04:16:57;5.85;;;3.22;;
30378;SDS011;17168;49.164;9.060;2023-07-02T04:19:29;5.15;;;2.45;;
30378;SDS011;17168;49.164;9.060;2023-07-02T04:22:01;5.40;;;2.53;;
30378;SDS011;17168;49.164;9.060;2023-07-02T04:24:37;7.22;;;2.92;;
30378;SDS011;17168;49.164;9.060;2023-07-02T04:27:09;7.03;;;2.53;;
30378;SDS011;17168;49.164;9.060;2023-07-02T04:30:02;7.53;;;2.42;;
30378;SDS011;17168;49.164;9.060;2023-07-02T04:32:37;6.10;;;2.22;;
30378;SDS011;17168;49.164;9.060;2023-07-02T04:35:13;6.13;;;2.70;;
30378;SDS011;17168;49.164;9.060;2023-07-02T04:37:45;5.90;;;2.75;;
30378;SDS011;17168;49.164;9.060;2023-07-02T04:40:20;6.15;;;3.15;;
30378;SDS011;17168;49.164;9.060;2023-07-02T04:42:52;6.03;;;2.10;;
30378;SDS011;17168;49.164;9.060;2023-07-02T04:45:29;3.42;;;2.08;;
30378;SDS011;17168;49.164;9.060;2023-07-02T04:48:03;5.55;;;2.53;;
30378;SDS011;17168;49.164;9.060;2023-07-02T04:50:36;5.45;;;2.53;;
30378;SDS011;17168;49.164;9.060;2023-07-02T04:53:08;8.05;;;3.00;;
30378;SDS011;17168;49.164;9.060;2023-07-02T04:55:43;5.28;;;1.85;;
30378;SDS011;17168;49.164;9.060;2023-07-02T04:58:16;3.97;;;2.13;;
30378;SDS011;17168;49.164;9.060;2023-07-02T05:00:48;4.35;;;1.95;;
30378;SDS011;17168;49.164;9.060;2023-07-02T05:03:21;4.63;;;2.20;;
30378;SDS011;17168;49.164;9.060;2023-07-02T05:05:53;7.68;;;3.65;;
30378;SDS011;17168;49.164;9.060;2023-07-02T05:08:26;5.03;;;2.40;;
30378;SDS011;17168;49.164;9.060;2023-07-02T05:11:01;5.13;;;2.78;;
30378;SDS011;17168;49.164;9.060;2023-07-02T05:13:33;4.32;;;2.13;;
30378;SDS011;17168;49.164;9.060;2023-07-02T05:16:05;8.50;;;3.15;;
30378;SDS011;17168;49.164;9.060;2023-07-02T05:18:37;4.85;;;2.15;;
30378;SDS011;17168;49.164;9.060;2023-07-02T05:21:10;4.65;;;1.85;;
30378;SDS011;17168;49.164;9.060;2023-07-02T05:23:43;5.65;;;2.13;;
30378;SDS011;17168;49.164;9.060;2023-07-02T05:26:18;4.28;;;1.85;;
30378;SDS011;17168;49.164;9.060;2023-07-02T05:28:52;4.18;;;1.40;;
30378;SDS011;17168;49.164;9.060;2023-07-02T05:31:24;5.22;;;1.75;;
30378;SDS011;17168;49.164;9.060;2023-07-02T05:33:57;2.58;;;1.45;;
30378;SDS011;17168;49.164;9.060;2023-07-02T05:36:29;3.40;;;1.27;;
30378;SDS011;17168;49.164;9.060;2023-07-02T05:39:02;5.60;;;1.98;;
30378;SDS011;17168;49.164;9.060;2023-07-02T05:41:37;3.28;;;1.55;;
30378;SDS011;17168;49.164;9.060;2023-07-02T05:44:09;6.95;;;2.42;;
30378;SDS011;17168;49.164;9.060;2023-07-02T05:46:41;4.85;;;2.22;;
30378;SDS011;17168;49.164;9.060;2023-07-02T05:49:14;5.05;;;2.45;;
30378;SDS011;17168;49.164;9.060;2023-07-02T05:51:46;4.35;;;2.03;;
30378;SDS011;17168;49.164;9.060;2023-07-02T05:54:19;7.50;;;2.92;;
30378;SDS011;17168;49.164;9.060;2023-07-02T05:56:54;4.90;;;1.90;;
30378;SDS011;17168;49.164;9.060;2023-07-02T05:59:26;6.65;;;2.28;;
30378;SDS011;17168;49.164;9.060;2023-07-02T06:01:59;7.75;;;3.08;;
30378;SDS011;17168;49.164;9.060;2023-07-02T06:04:32;9.25;;;3.58;;
30378;SDS011;17168;49.164;9.060;2023-07-02T06:07:04;9.32;;;3.13;;
30378;SDS011;17168;49.164;9.060;2023-07-02T06:09:37;7.00;;;1.95;;
30378;SDS011;17168;49.164;9.060;2023-07-02T06:12:12;7.82;;;4.05;;
30378;SDS011;17168;49.164;9.060;2023-07-02T06:14:44;7.97;;;3.80;;
30378;SDS011;17168;49.164;9.060;2023-07-02T06:17:17;9.13;;;4.05;;
30378;SDS011;17168;49.164;9.060;2023-07-02T06:19:49;6.45;;;2.47;;
30378;SDS011;17168;49.164;9.060;2023-07-02T06:22:21;5.30;;;2.97;;
30378;SDS011;17168;49.164;9.060;2023-07-02T06:24:53;13.00;;;4.63;;
30378;SDS011;17168;49.164;9.060;2023-07-02T06:27:28;6.35;;;2.20;;
30378;SDS011;17168;49.164;9.060;2023-07-02T06:30:01;9.82;;;3.72;;
30378;SDS011;17168;49.164;9.060;2023-07-02T06:32:33;7.10;;;4.40;;
30378;SDS011;17168;49.164;9.060;2023-07-02T06:35:06;6.75;;;2.78;;
30378;SDS011;17168;49.164;9.060;2023-07-02T06:37:39;9.27;;;4.57;;
30378;SDS011;17168;49.164;9.060;2023-07-02T06:40:11;11.23;;;4.45;;
30378;SDS011;17168;49.164;9.060;2023-07-02T06:42:46;7.70;;;3.17;;
30378;SDS011;17168;49.164;9.060;2023-07-02T06:45:18;5.65;;;2.10;;
30378;SDS011;17168;49.164;9.060;2023-07-02T06:47:51;7.50;;;3.33;;
30378;SDS011;17168;49.164;9.060;2023-07-02T06:50:23;5.63;;;2.95;;
30378;SDS011;17168;49.164;9.060;2023-07-02T06:52:55;9.68;;;3.95;;
30378;SDS011;17168;49.164;9.060;2023-07-02T06:55:28;7.15;;;3.17;;
30378;SDS011;17168;49.164;9.060;2023-07-02T06:58:03;5.03;;;3.08;;
30378;SDS011;17168;49.164;9.060;2023-07-02T07:00:36;8.88;;;3.25;;
30378;SDS011;17168;49.164;9.060;2023-07-02T07:03:08;8.05;;;3.78;;
30378;SDS011;17168;49.164;9.060;2023-07-02T07:05:40;9.50;;;4.57;;
30378;SDS011;17168;49.164;9.060;2023-07-02T07:27:44;9.38;;;4.38;;
30378;SDS011;17168;49.164;9.060;2023-07-02T07:30:16;7.03;;;4.13;;
30378;SDS011;17168;49.164;9.060;2023-07-02T07:32:54;13.55;;;5.13;;
30378;SDS011;17168;49.164;9.060;2023-07-02T07:35:27;8.00;;;4.63;;
30378;SDS011;17168;49.164;9.060;2023-07-02T07:37:59;15.15;;;5.88;;
30378;SDS011;17168;49.164;9.060;2023-07-02T07:40:31;12.48;;;5.55;;
30378;SDS011;17168;49.164;9.060;2023-07-02T07:43:06;11.02;;;5.13;;
30378;SDS011;17168;49.164;9.060;2023-07-02T07:45:38;8.85;;;3.92;;
30378;SDS011;17168;49.164;9.060;2023-07-02T07:48:11;9.10;;;3.25;;
30378;SDS011;17168;49.164;9.060;2023-07-02T07:50:43;15.15;;;5.32;;
30378;SDS011;17168;49.164;9.060;2023-07-02T07:53:15;13.18;;;5.65;;
30378;SDS011;17168;49.164;9.060;2023-07-02T07:55:47;9.75;;;3.78;;
30378;SDS011;17168;49.164;9.060;2023-07-02T07:58:22;13.32;;;6.22;;
30378;SDS011;17168;49.164;9.060;2023-07-02T08:09:10;13.90;;;5.85;;
30378;SDS011;17168;49.164;9.060;2023-07-02T08:11:42;13.35;;;6.88;;
30378;SDS011;17168;49.164;9.060;2023-07-02T08:14:17;10.77;;;7.00;;
30378;SDS011;17168;49.164;9.060;2023-07-02T08:16:50;11.32;;;5.60;;
30378;SDS011;17168;49.164;9.060;2023-07-02T08:19:23;9.45;;;4.55;;
30378;SDS011;17168;49.164;9.060;2023-07-02T08:21:59;12.52;;;5.97;;
30378;SDS011;17168;49.164;9.060;2023-07-02T08:24:41;20.42;;;8.07;;
30378;SDS011;17168;49.164;9.060;2023-07-02T08:27:14;12.88;;;5.05;;
30378;SDS011;17168;49.164;9.060;2023-07-02T08:29:50;9.05;;;5.57;;
30378;SDS011;17168;49.164;9.060;2023-07-02T08:32:22;15.18;;;7.55;;
30378;SDS011;17168;49.164;9.060;2023-07-02T08:34:54;13.65;;;6.75;;
30378;SDS011;17168;49.164;9.060;2023-07-02T08:37:28;13.13;;;5.70;;
30378;SDS011;17168;49.164;9.060;2023-07-02T08:40:00;17.58;;;7.25;;
30378;SDS011;17168;49.164;9.060;2023-07-02T08:42:33;14.85;;;6.55;;
30378;SDS011;17168;49.164;9.060;2023-07-02T08:45:08;10.07;;;4.88;;
30378;SDS011;17168;49.164;9.060;2023-07-02T08:47:42;16.00;;;7.60;;
30378;SDS011;17168;49.164;9.060;2023-07-02T08:50:17;10.15;;;4.38;;
30378;SDS011;17168;49.164;9.060;2023-07-02T08:52:50;13.77;;;6.80;;
30378;SDS011;17168;49.164;9.060;2023-07-02T08:55:27;12.73;;;5.25;;
30378;SDS011;17168;49.164;9.060;2023-07-02T08:58:01;17.30;;;7.20;;
30378;SDS011;17168;49.164;9.060;2023-07-02T09:00:36;15.65;;;8.15;;
30378;SDS011;17168;49.164;9.060;2023-07-02T09:03:12;9.63;;;5.65;;
30378;SDS011;17168;49.164;9.060;2023-07-02T09:05:50;16.55;;;7.15;;
30378;SDS011;17168;49.164;9.060;2023-07-02T09:08:28;12.70;;;5.75;;
30378;SDS011;17168;49.164;9.060;2023-07-02T09:11:07;15.57;;;7.68;;
30378;SDS011;17168;49.164;9.060;2023-07-02T09:13:44;15.20;;;7.57;;
30378;SDS011;17168;49.164;9.060;2023-07-02T09:16:24;14.10;;;6.45;;
30378;SDS011;17168;49.164;9.060;2023-07-02T09:19:01;17.70;;;8.20;;
30378;SDS011;17168;49.164;9.060;2023-07-02T09:21:38;13.05;;;6.20;;
30378;SDS011;17168;49.164;9.060;2023-07-02T09:24:17;19.58;;;9.48;;
30378;SDS011;17168;49.164;9.060;2023-07-02T09:26:56;15.20;;;7.35;;
30378;SDS011;17168;49.164;9.060;2023-07-02T09:29:30;14.13;;;6.28;;
30378;SDS011;17168;49.164;9.060;2023-07-02T09:32:08;15.13;;;7.72;;
30378;SDS011;17168;49.164;9.060;2023-07-02T09:34:45;14.23;;;6.10;;
30378;SDS011;17168;49.164;9.060;2023-07-02T09:37:19;13.02;;;7.10;;
30378;SDS011;17168;49.164;9.060;2023-07-02T09:39:54;15.52;;;7.57;;
30378;SDS011;17168;49.164;9.060;2023-07-02T09:42:29;13.52;;;7.25;;
30378;SDS011;17168;49.164;9.060;2023-07-02T09:45:06;14.05;;;6.25;;
30378;SDS011;17168;49.164;9.060;2023-07-02T09:47:47;17.95;;;6.95;;
30378;SDS011;17168;49.164;9.060;2023-07-02T09:50:23;15.25;;;8.57;;
30378;SDS011;17168;49.164;9.060;2023-07-02T09:52:56;16.63;;;7.22;;
30378;SDS011;17168;49.164;9.060;2023-07-02T09:55:30;21.05;;;10.80;;
30378;SDS011;17168;49.164;9.060;2023-07-02T09:58:04;17.88;;;7.55;;
30378;SDS011;17168;49.164;9.060;2023-07-02T10:00:50;20.80;;;9.57;;
30378;SDS011;17168;49.164;9.060;2023-07-02T10:03:33;16.75;;;8.32;;
30378;SDS011;17168;49.164;9.060;2023-07-02T10:06:07;21.35;;;10.23;;
30378;SDS011;17168;49.164;9.060;2023-07-02T10:08:40;17.80;;;7.53;;
30378;SDS011;17168;49.164;9.060;2023-07-02T10:11:32;12.93;;;6.75;;
30378;SDS011;17168;49.164;9.060;2023-07-02T10:14:06;18.15;;;8.88;;
30378;SDS011;17168;49.164;9.060;2023-07-02T10:16:48;15.60;;;7.53;;
30378;SDS011;17168;49.164;9.060;2023-07-02T10:19:24;18.13;;;10.63;;
30378;SDS011;17168;49.164;9.060;2023-07-02T10:22:00;19.27;;;10.13;;
30378;SDS011;17168;49.164;9.060;2023-07-02T10:24:50;10.27;;;5.35;;
30378;SDS011;17168;49.164;9.060;2023-07-02T10:27:33;21.23;;;12.02;;
30378;SDS011;17168;49.164;9.060;2023-07-02T10:30:07;18.92;;;11.88;;
30378;SDS011;17168;49.164;9.060;2023-07-02T10:32:41;19.77;;;9.27;;
30378;SDS011;17168;49.164;9.060;2023-07-02T10:35:16;20.10;;;10.27;;
30378;SDS011;17168;49.164;9.060;2023-07-02T10:37:49;19.00;;;9.75;;
30378;SDS011;17168;49.164;9.060;2023-07-02T10:40:27;16.85;;;9.75;;
30378;SDS011;17168;49.164;9.060;2023-07-02T10:43:02;18.77;;;8.85;;
30378;SDS011;17168;49.164;9.060;2023-07-02T10:45:35;21.83;;;9.95;;
30378;SDS011;17168;49.164;9.060;2023-07-02T10:48:08;23.08;;;9.70;;
30378;SDS011;17168;49.164;9.060;2023-07-02T10:50:43;19.67;;;10.38;;
30378;SDS011;17168;49.164;9.060;2023-07-02T10:53:16;22.02;;;9.00;;
30378;SDS011;17168;49.164;9.060;2023-07-02T10:55:56;19.70;;;8.52;;
30378;SDS011;17168;49.164;9.060;2023-07-02T10:58:30;17.50;;;8.52;;
30378;SDS011;17168;49.164;9.060;2023-07-02T11:01:02;19.33;;;9.48;;
30378;SDS011;17168;49.164;9.060;2023-07-02T11:03:34;19.27;;;9.93;;
30378;SDS011;17168;49.164;9.060;2023-07-02T11:06:09;12.00;;;5.93;;
30378;SDS011;17168;49.164;9.060;2023-07-02T11:08:42;10.30;;;5.32;;
30378;SDS011;17168;49.164;9.060;2023-07-02T11:11:14;14.02;;;6.50;;
30378;SDS011;17168;49.164;9.060;2023-07-02T11:13:47;12.63;;;5.30;;
30378;SDS011;17168;49.164;9.060;2023-07-02T11:16:24;17.73;;;10.13;;
30378;SDS011;17168;49.164;9.060;2023-07-02T11:19:06;18.17;;;9.15;;
30378;SDS011;17168;49.164;9.060;2023-07-02T11:21:50;19.92;;;9.93;;
30378;SDS011;17168;49.164;9.060;2023-07-02T11:24:30;20.85;;;10.88;;
30378;SDS011;17168;49.164;9.060;2023-07-02T11:27:04;20.95;;;11.85;;
30378;SDS011;17168;49.164;9.060;2023-07-02T11:29:41;17.45;;;8.35;;
30378;SDS011;17168;49.164;9.060;2023-07-02T11:32:15;16.95;;;10.05;;
30378;SDS011;17168;49.164;9.060;2023-07-02T11:34:52;15.68;;;8.98;;
30378;SDS011;17168;49.164;9.060;2023-07-02T11:37:37;15.70;;;6.55;;
30378;SDS011;17168;49.164;9.060;2023-07-02T11:40:10;17.92;;;8.85;;
30378;SDS011;17168;49.164;9.060;2023-07-02T11:42:52;18.58;;;10.93;;
30378;SDS011;17168;49.164;9.060;2023-07-02T11:45:24;18.80;;;11.20;;
30378;SDS011;17168;49.164;9.060;2023-07-02T11:48:04;18.80;;;10.10;;
30378;SDS011;17168;49.164;9.060;2023-07-02T11:50:36;19.60;;;11.60;;
30378;SDS011;17168;49.164;9.060;2023-07-02T11:53:12;18.42;;;9.35;;
30378;SDS011;17168;49.164;9.060;2023-07-02T11:55:47;17.83;;;10.98;;
30378;SDS011;17168;49.164;9.060;2023-07-02T11:58:20;14.85;;;9.43;;
30378;SDS011;17168;49.164;9.060;2023-07-02T12:00:57;17.83;;;10.43;;
30378;SDS011;17168;49.164;9.060;2023-07-02T12:03:29;14.13;;;7.07;;
30378;SDS011;17168;49.164;9.060;2023-07-02T12:06:02;16.00;;;6.68;;
30378;SDS011;17168;49.164;9.060;2023-07-02T12:08:41;17.15;;;7.65;;
30378;SDS011;17168;49.164;9.060;2023-07-02T12:11:18;13.70;;;6.82;;
30378;SDS011;17168;49.164;9.060;2023-07-02T12:13:51;15.75;;;7.85;;
30378;SDS011;17168;49.164;9.060;2023-07-02T12:16:31;17.45;;;8.98;;
30378;SDS011;17168;49.164;9.060;2023-07-02T12:19:03;14.40;;;8.07;;
30378;SDS011;17168;49.164;9.060;2023-07-02T12:21:36;18.25;;;9.32;;
30378;SDS011;17168;49.164;9.060;2023-07-02T12:24:11;17.63;;;10.65;;
30378;SDS011;17168;49.164;9.060;2023-07-02T12:26:43;19.55;;;9.68;;
30378;SDS011;17168;49.164;9.060;2023-07-02T12:29:15;18.33;;;10.23;;
30378;SDS011;17168;49.164;9.060;2023-07-02T12:31:47;17.15;;;8.65;;
30378;SDS011;17168;49.164;9.060;2023-07-02T12:34:20;20.77;;;11.02;;
30378;SDS011;17168;49.164;9.060;2023-07-02T12:36:52;18.70;;;11.13;;
30378;SDS011;17168;49.164;9.060;2023-07-02T12:39:27;19.27;;;10.43;;
30378;SDS011;17168;49.164;9.060;2023-07-02T12:41:59;17.80;;;9.68;;
30378;SDS011;17168;49.164;9.060;2023-07-02T12:44:31;19.35;;;9.82;;
30378;SDS011;17168;49.164;9.060;2023-07-02T12:47:04;21.40;;;10.13;;
30378;SDS011;17168;49.164;9.060;2023-07-02T12:49:37;20.63;;;12.15;;
30378;SDS011;17168;49.164;9.060;2023-07-02T12:52:09;20.88;;;12.43;;
30378;SDS011;17168;49.164;9.060;2023-07-02T12:54:45;18.50;;;9.98;;
30378;SDS011;17168;49.164;9.060;2023-07-02T12:57:20;18.65;;;10.38;;
30378;SDS011;17168;49.164;9.060;2023-07-02T12:59:52;16.42;;;9.15;;
30378;SDS011;17168;49.164;9.060;2023-07-02T13:02:25;20.00;;;10.90;;
30378;SDS011;17168;49.164;9.060;2023-07-02T13:04:57;18.38;;;10.02;;
30378;SDS011;17168;49.164;9.060;2023-07-02T13:07:29;19.10;;;10.43;;
30378;SDS011;17168;49.164;9.060;2023-07-02T13:10:05;18.67;;;11.05;;
30378;SDS011;17168;49.164;9.060;2023-07-02T13:12:45;15.65;;;8.85;;
30378;SDS011;17168;49.164;9.060;2023-07-02T13:15:17;14.77;;;8.25;;
30378;SDS011;17168;49.164;9.060;2023-07-02T13:17:50;17.30;;;9.52;;
30378;SDS011;17168;49.164;9.060;2023-07-02T13:20:23;18.92;;;10.85;;
30378;SDS011;17168;49.164;9.060;2023-07-02T13:22:55;13.68;;;8.13;;
30378;SDS011;17168;49.164;9.060;2023-07-02T13:25:30;20.98;;;12.00;;
30378;SDS011;17168;49.164;9.060;2023-07-02T13:28:02;19.65;;;9.35;;
30378;SDS011;17168;49.164;9.060;2023-07-02T13:30:35;18.27;;;9.05;;
30378;SDS011;17168;49.164;9.060;2023-07-02T13:33:07;14.30;;;6.97;;
30378;SDS011;17168;49.164;9.060;2023-07-02T13:35:39;18.85;;;11.57;;
30378;SDS011;17168;49.164;9.060;2023-07-02T13:38:12;20.23;;;10.70;;
30378;SDS011;17168;49.164;9.060;2023-07-02T13:40:47;22.20;;;12.05;;
30378;SDS011;17168;49.164;9.060;2023-07-02T13:43:22;20.70;;;8.40;;
30378;SDS011;17168;49.164;9.060;2023-07-02T13:45:54;18.17;;;10.10;;
30378;SDS011;17168;49.164;9.060;2023-07-02T13:48:27;19.65;;;10.35;;
30378;SDS011;17168;49.164;9.060;2023-07-02T13:50:59;18.05;;;10.95;;
30378;SDS011;17168;49.164;9.060;2023-07-02T13:53:31;20.55;;;10.82;;
30378;SDS011;17168;49.164;9.060;2023-07-02T13:56:06;19.40;;;11.60;;
30378;SDS011;17168;49.164;9.060;2023-07-02T14:01:20;20.05;;;11.45;;
30378;SDS011;17168;49.164;9.060;2023-07-02T14:03:52;18.90;;;10.45;;
30378;SDS011;17168;49.164;9.060;2023-07-02T14:06:26;20.20;;;10.95;;
30378;SDS011;17168;49.164;9.060;2023-07-02T14:08:58;16.73;;;10.05;;
30378;SDS011;17168;49.164;9.060;2023-07-02T14:11:31;12.60;;;6.35;;
30378;SDS011;17168;49.164;9.060;2023-07-02T14:14:03;18.80;;;8.65;;
30378;SDS011;17168;49.164;9.060;2023-07-02T14:16:39;17.85;;;12.05;;
30378;SDS011;17168;49.164;9.060;2023-07-02T14:19:12;21.55;;;12.27;;
30378;SDS011;17168;49.164;9.060;2023-07-02T14:21:46;18.40;;;11.95;;
30378;SDS011;17168;49.164;9.060;2023-07-02T14:24:22;16.10;;;8.60;;
30378;SDS011;17168;49.164;9.060;2023-07-02T14:26:54;16.67;;;10.85;;
30378;SDS011;17168;49.164;9.060;2023-07-02T14:29:26;17.42;;;10.40;;
30378;SDS011;17168;49.164;9.060;2023-07-02T14:32:01;16.15;;;7.95;;
30378;SDS011;17168;49.164;9.060;2023-07-02T14:34:34;18.13;;;12.02;;
30378;SDS011;17168;49.164;9.060;2023-07-02T14:37:07;20.00;;;12.38;;
30378;SDS011;17168;49.164;9.060;2023-07-02T14:39:41;17.10;;;9.93;;
30378;SDS011;17168;49.164;9.060;2023-07-02T14:42:31;18.73;;;11.57;;
30378;SDS011;17168;49.164;9.060;2023-07-02T14:45:04;18.58;;;11.63;;
30378;SDS011;17168;49.164;9.060;2023-07-02T14:47:43;19.40;;;9.88;;
30378;SDS011;17168;49.164;9.060;2023-07-02T14:50:18;18.60;;;11.23;;
30378;SDS011;17168;49.164;9.060;2023-07-02T14:53:05;15.02;;;9.18;;
30378;SDS011;17168;49.164;9.060;2023-07-02T14:55:39;16.60;;;9.05;;
30378;SDS011;17168;49.164;9.060;2023-07-02T14:58:14;20.02;;;11.00;;
30378;SDS011;17168;49.164;9.060;2023-07-02T15:00:47;19.67;;;10.30;;
30378;SDS011;17168;49.164;9.060;2023-07-02T15:03:24;17.40;;;10.20;;
30378;SDS011;17168;49.164;9.060;2023-07-02T15:06:07;19.23;;;11.65;;
30378;SDS011;17168;49.164;9.060;2023-07-02T15:08:44;17.23;;;9.68;;
30378;SDS011;17168;49.164;9.060;2023-07-02T15:11:22;18.00;;;10.73;;
30378;SDS011;17168;49.164;9.060;2023-07-02T15:13:54;16.20;;;6.90;;
30378;SDS011;17168;49.164;9.060;2023-07-02T15:16:29;15.48;;;8.73;;
30378;SDS011;17168;49.164;9.060;2023-07-02T15:19:07;16.48;;;11.27;;
30378;SDS011;17168;49.164;9.060;2023-07-02T15:21:40;12.73;;;6.20;;
30378;SDS011;17168;49.164;9.060;2023-07-02T15:24:15;15.45;;;9.63;;
30378;SDS011;17168;49.164;9.060;2023-07-02T15:26:53;15.05;;;9.60;;
30378;SDS011;17168;49.164;9.060;2023-07-02T15:29:27;14.48;;;9.18;;
30378;SDS011;17168;49.164;9.060;2023-07-02T15:36:01;15.75;;;9.68;;
30378;SDS011;17168;49.164;9.060;2023-07-02T15:38:35;15.13;;;9.30;;
30378;SDS011;17168;49.164;9.060;2023-07-02T15:41:10;14.02;;;8.68;;
30378;SDS011;17168;49.164;9.060;2023-07-02T15:47:07;16.75;;;9.20;;
30378;SDS011;17168;49.164;9.060;2023-07-02T15:49:40;14.77;;;9.30;;
30378;SDS011;17168;49.164;9.060;2023-07-02T15:52:15;16.95;;;9.50;;
30378;SDS011;17168;49.164;9.060;2023-07-02T15:54:47;18.02;;;9.88;;
30378;SDS011;17168;49.164;9.060;2023-07-02T15:57:19;18.23;;;9.68;;